Cairns AAF (Fort Rucker) Air Field Fort Rucker,Ozark US
ICAO: KOZR
IATA: OZR
Category: Medium
Scheduled Services: No

Elevation: 301 ft
TransAlt. 18000 ft.

Airport Communications:
APP/DEP:121.1
ATIS:111.2
CLNC DEL:118.075
CTAF:135.2
GND:121.9
OPS:126.2
PMSV METRO:134.1
TWR:135.2

KOZR Zoom In..

If you have problems with the map follow the link
https://www.worldairports.se/pages/airport.php?
ICAO=KOZR

Runways:

(A) RW 06 length 4546 ft width 150 ft
ILS 109.70 / hdg 64

(B) RW 18 length 5025 ft width 150 ft
---- / hdg 184

(C) RW 24 length 4546 ft width 150 ft
---- / hdg 244

(D) RW 36 length 5025 ft width 150 ft
---- / hdg 4

Location; KOZR
Day. 13 / Time. 12.13 Zulu
* Altimeter: 30.06
* Temperature: 07° c. 44.6°f.
* Wind from: 020° Speed 05 kn.
Dewpoint: 07° c.
Visibility: 1 m.
Clouds: Overcast 200 ft.
Conditions: Mist.

KOZR 131213Z AUTO 02005KT 1 7/8SM -TSRA BR OVC002 07/07 A3006 RMK AO2 DZB1158E08RAB08 TSB13 SLP183


Wind From 020°
Speed 05 kn.

 
 
jpsmedia worldairports.se 2019   terms of use